Time;durP1;ratioP1;P1;durP2;ratioP2;P2;SDS_P1;SDS_P2;PMS_P1;PMS_P2;Temp;Humidity;BMP_temperature;BMP_pressure;BME280_temperature;BME280_humidity;BME280_pressure;Samples;Min_cycle;Max_cycle;Signal;HPM_P1;HPM_P2
2023/01/26 00:01:18;;;;;;;3.67;3.35;;;19.20;49.40;;;;;;4993470;28;20177;-66
2023/01/26 00:03:44;;;;;;;4.13;3.65;;;19.20;49.40;;;;;;4977115;28;20208;-66
2023/01/26 00:06:14;;;;;;;3.90;3.55;;;19.20;49.50;;;;;;4980969;28;20192;-66
2023/01/26 00:08:46;;;;;;;4.53;3.97;;;19.20;49.40;;;;;;5012719;28;20242;-66
2023/01/26 00:11:16;;;;;;;3.92;3.53;;;19.20;49.40;;;;;;5013024;28;20203;-66
2023/01/26 00:13:42;;;;;;;4.35;3.95;;;19.20;49.50;;;;;;4996432;28;20192;-66
2023/01/26 00:16:14;;;;;;;4.70;3.80;;;19.20;49.40;;;;;;4993380;28;20231;-66
2023/01/26 00:18:41;;;;;;;3.90;3.42;;;19.20;49.40;;;;;;4992101;28;20573;-65
2023/01/26 00:21:12;;;;;;;3.38;3.08;;;19.20;49.40;;;;;;5001093;28;20196;-66
2023/01/26 00:23:37;;;;;;;3.72;3.15;;;19.20;49.40;;;;;;5009613;28;20188;-66
2023/01/26 00:26:09;;;;;;;4.05;3.30;;;19.20;49.40;;;;;;5012614;28;20196;-66
2023/01/26 00:28:36;;;;;;;3.80;3.42;;;19.30;49.60;;;;;;5005534;28;20566;-66
2023/01/26 00:31:10;;;;;;;3.92;3.53;;;19.30;49.60;;;;;;5002945;28;20208;-66
2023/01/26 00:33:36;;;;;;;3.95;3.63;;;19.30;50.20;;;;;;4989128;28;20188;-64
2023/01/26 00:36:01;;;;;;;3.28;3.00;;;19.30;49.60;;;;;;4993675;28;20709;-65
2023/01/26 00:38:28;;;;;;;3.08;2.83;;;19.30;49.60;;;;;;4991824;28;20224;-66
2023/01/26 00:40:54;;;;;;;3.25;2.95;;;19.30;49.60;;;;;;5008880;28;20195;-65
2023/01/26 00:43:19;;;;;;;3.35;3.05;;;19.30;49.60;;;;;;5005619;28;20184;-66
2023/01/26 00:45:45;;;;;;;3.85;3.45;;;19.30;49.60;;;;;;4988007;28;20184;-66
2023/01/26 00:48:11;;;;;;;3.25;2.97;;;19.30;49.60;;;;;;4987512;28;20200;-66
2023/01/26 00:50:37;;;;;;;4.15;3.15;;;19.30;49.60;;;;;;4997725;28;20274;-66
2023/01/26 00:53:03;;;;;;;3.20;2.90;;;19.30;49.60;;;;;;5000587;28;20195;-66
2023/01/26 00:55:32;;;;;;;3.30;3.00;;;19.30;49.60;;;;;;4976217;28;20290;-66
2023/01/26 00:58:01;;;;;;;3.60;3.30;;;19.30;49.60;;;;;;5001965;28;20223;-66
2023/01/26 01:00:30;;;;;;;3.67;3.08;;;19.30;49.60;;;;;;4995483;28;20653;-66
2023/01/26 01:02:57;;;;;;;3.15;2.85;;;19.30;49.60;;;;;;5001818;28;20192;-66
2023/01/26 01:05:25;;;;;;;3.80;3.40;;;19.30;49.60;;;;;;5011679;28;20188;-66
2023/01/26 01:07:51;;;;;;;3.55;3.25;;;19.30;49.60;;;;;;4987151;28;20212;-65
2023/01/26 01:10:18;;;;;;;3.05;2.83;;;19.30;49.60;;;;;;5011703;28;20203;-66
2023/01/26 01:12:44;;;;;;;2.83;2.58;;;19.30;49.60;;;;;;5011652;28;20199;-66
2023/01/26 01:15:10;;;;;;;3.03;2.72;;;19.30;49.60;;;;;;4987276;28;20192;-65
2023/01/26 01:17:37;;;;;;;2.67;2.47;;;19.30;49.60;;;;;;4994400;28;20224;-66
2023/01/26 01:20:06;;;;;;;3.65;2.95;;;19.30;49.60;;;;;;4995204;28;20224;-65
2023/01/26 01:22:33;;;;;;;3.28;2.97;;;19.30;49.60;;;;;;5014341;28;20202;-66
2023/01/26 01:24:59;;;;;;;2.83;2.63;;;19.30;49.60;;;;;;4995194;28;20194;-66
2023/01/26 01:27:25;;;;;;;3.10;2.80;;;19.30;49.60;;;;;;5011648;28;20200;-65
2023/01/26 01:29:51;;;;;;;2.70;2.50;;;19.30;49.60;;;;;;4986875;28;20204;-65
2023/01/26 01:32:18;;;;;;;2.90;2.70;;;19.30;49.60;;;;;;4995619;28;20326;-66
2023/01/26 01:34:49;;;;;;;3.25;2.65;;;19.30;49.60;;;;;;5011300;28;20223;-66
2023/01/26 01:37:16;;;;;;;2.55;2.35;;;19.30;49.60;;;;;;5007571;28;20185;-65
2023/01/26 01:39:42;;;;;;;2.75;2.55;;;19.30;49.60;;;;;;4999739;28;20268;-66
2023/01/26 01:42:08;;;;;;;2.50;2.30;;;19.30;49.60;;;;;;4999763;28;20192;-66
2023/01/26 01:44:36;;;;;;;2.50;2.30;;;19.30;49.60;;;;;;4975497;28;20189;-65
2023/01/26 01:47:25;;;;;;;2.47;2.28;;;19.30;49.50;;;;;;4991508;28;20650;-66
2023/01/26 01:49:52;;;;;;;2.88;2.65;;;19.30;49.60;;;;;;5010979;28;20584;-66
2023/01/26 01:52:30;;;;;;;2.80;2.60;;;19.30;49.50;;;;;;4995656;28;20172;-65
2023/01/26 01:55:06;;;;;;;3.17;2.90;;;19.30;49.60;;;;;;5011173;28;20209;-65
2023/01/26 01:57:51;;;;;;;2.53;2.33;;;19.30;49.60;;;;;;5011295;28;20247;-66
2023/01/26 02:00:21;;;;;;;2.72;2.20;;;19.30;49.60;;;;;;4994887;28;20275;-65
2023/01/26 02:03:10;;;;;;;2.40;2.20;;;19.30;49.50;;;;;;4997844;28;20192;-66
2023/01/26 02:06:03;;;;;;;2.85;2.65;;;19.30;49.60;;;;;;4990575;28;20191;-66
2023/01/26 02:08:46;;;;;;;2.45;2.25;;;19.30;49.50;;;;;;4979456;28;20239;-65
2023/01/26 02:11:33;;;;;;;2.80;2.60;;;19.30;49.60;;;;;;4995390;28;20210;-66
2023/01/26 02:14:04;;;;;;;2.53;2.30;;;19.30;49.50;;;;;;4996640;28;20310;-65
2023/01/26 02:16:30;;;;;;;3.08;2.35;;;19.30;49.60;;;;;;5006647;28;20192;-66
2023/01/26 02:18:56;;;;;;;2.60;2.40;;;19.30;49.60;;;;;;4998034;28;20226;-65
2023/01/26 02:21:22;;;;;;;2.50;2.30;;;19.30;49.60;;;;;;5006619;28;20183;-65
2023/01/26 02:24:16;;;;;;;2.80;2.60;;;19.30;49.60;;;;;;5014760;28;20184;-66
2023/01/26 02:26:42;;;;;;;2.75;2.55;;;19.30;49.60;;;;;;5014856;28;20204;-65
2023/01/26 02:29:10;;;;;;;2.72;2.17;;;19.30;49.60;;;;;;4996179;28;20239;-65
2023/01/26 02:31:41;;;;;;;2.83;2.60;;;19.40;49.60;;;;;;4985638;28;20708;-65
2023/01/26 02:34:07;;;;;;;2.38;2.17;;;19.30;49.60;;;;;;5014767;28;20192;-66
2023/01/26 02:36:33;;;;;;;2.58;2.38;;;19.40;49.60;;;;;;4986700;28;20628;-66
2023/01/26 02:39:24;;;;;;;2.40;2.20;;;19.40;49.60;;;;;;5006167;28;20654;-66
2023/01/26 02:44:40;;;;;;;2.60;2.40;;;19.30;49.60;;;;;;5019329;28;20219;-65
2023/01/26 02:47:16;;;;;;;2.40;2.20;;;19.30;49.60;;;;;;5011677;28;20220;-66
2023/01/26 02:49:46;;;;;;;2.13;2.00;;;19.40;49.60;;;;;;4998267;28;20198;-66
2023/01/26 02:52:15;;;;;;;2.30;2.10;;;19.30;49.60;;;;;;5005939;28;20223;-66
2023/01/26 02:55:44;;;;;;;2.60;2.40;;;19.30;49.50;;;;;;5014515;28;20214;-66
2023/01/26 02:57:39;;;;;;;2.50;2.30;;;19.30;49.60;;;;;;5009650;28;20235;-66
2023/01/26 03:00:36;;;;;;;2.72;2.53;;;19.30;49.60;;;;;;5012081;28;20190;-65
2023/01/26 03:03:12;;;;;;;2.47;2.28;;;19.30;49.50;;;;;;5001611;28;20193;-66
2023/01/26 03:05:38;;;;;;;2.15;1.95;;;19.40;49.60;;;;;;4984440;28;20231;-66
2023/01/26 03:08:05;;;;;;;2.58;2.38;;;19.30;49.50;;;;;;4995754;28;20208;-66
2023/01/26 03:10:35;;;;;;;2.60;2.40;;;19.30;49.50;;;;;;4992825;28;20200;-66
2023/01/26 03:13:02;;;;;;;2.40;2.20;;;19.40;49.60;;;;;;5003365;28;20232;-66
2023/01/26 03:15:41;;;;;;;2.53;2.33;;;19.40;49.60;;;;;;4992845;28;20188;-66
2023/01/26 03:29:12;;;;;;;2.20;2.10;;;19.40;49.60;;;;;;5013318;28;20204;-66
2023/01/26 03:31:40;;;;;;;2.38;2.17;;;19.40;49.60;;;;;;4991361;28;20193;-66
2023/01/26 03:34:06;;;;;;;2.80;2.60;;;19.30;49.50;;;;;;5010326;28;20549;-66
2023/01/26 03:36:32;;;;;;;3.20;2.17;;;19.30;49.50;;;;;;5006977;28;20226;-66
2023/01/26 03:38:59;;;;;;;2.38;2.17;;;19.40;49.60;;;;;;4989223;28;20213;-64
2023/01/26 03:57:52;;;;;;;2.20;2.00;;;19.40;49.50;;;;;;5013112;28;20222;-66
2023/01/26 04:00:18;;;;;;;2.38;2.17;;;19.40;49.50;;;;;;4996462;28;20184;-66
2023/01/26 04:08:23;;;;;;;2.20;2.00;;;19.40;49.40;;;;;;5004586;28;20239;-66
2023/01/26 04:10:55;;;;;;;2.35;2.15;;;19.40;49.50;;;;;;5005258;28;20279;-66
2023/01/26 04:21:40;;;;;;;2.53;2.33;;;19.40;49.50;;;;;;5004353;28;20184;-66
2023/01/26 04:24:15;;;;;;;2.20;2.00;;;19.40;49.40;;;;;;4993725;28;20173;-66
2023/01/26 04:26:42;;;;;;;2.03;1.92;;;19.40;49.50;;;;;;5001563;28;20199;-66
2023/01/26 04:29:14;;;;;;;2.10;2.00;;;19.40;49.50;;;;;;5007773;28;20208;-66
2023/01/26 04:31:42;;;;;;;2.17;1.98;;;19.40;49.50;;;;;;4998763;28;20685;-65
2023/01/26 04:34:14;;;;;;;2.25;2.05;;;19.40;49.50;;;;;;5002996;28;20676;-66
2023/01/26 04:36:42;;;;;;;2.45;2.25;;;19.40;49.50;;;;;;4986646;28;20185;-66
2023/01/26 04:39:08;;;;;;;2.42;2.22;;;19.40;49.50;;;;;;5003702;28;20594;-66
2023/01/26 04:41:37;;;;;;;2.40;2.20;;;19.40;49.50;;;;;;5012437;28;20184;-66
2023/01/26 04:44:09;;;;;;;2.00;1.80;;;19.40;49.40;;;;;;5012449;28;20194;-66
2023/01/26 04:46:36;;;;;;;2.35;2.15;;;19.40;49.40;;;;;;4992736;28;20192;-66
2023/01/26 04:49:03;;;;;;;2.35;2.15;;;19.40;49.40;;;;;;5005965;28;20212;-66
2023/01/26 04:51:29;;;;;;;2.40;2.20;;;19.40;49.40;;;;;;4995582;28;20190;-66
2023/01/26 04:53:55;;;;;;;2.30;2.10;;;19.40;49.40;;;;;;4996066;28;20196;-66
2023/01/26 04:56:32;;;;;;;2.05;1.85;;;19.40;49.50;;;;;;4995672;28;20184;-65
2023/01/26 04:59:05;;;;;;;2.30;2.10;;;19.40;49.50;;;;;;4987530;28;20589;-65
2023/01/26 05:01:33;;;;;;;2.20;2.00;;;19.40;49.40;;;;;;5004019;28;20180;-66
2023/01/26 05:04:01;;;;;;;2.10;1.90;;;19.40;49.40;;;;;;5012146;28;20194;-66
2023/01/26 05:06:29;;;;;;;2.10;1.90;;;19.40;49.50;;;;;;5004231;28;20251;-66
2023/01/26 05:08:56;;;;;;;2.08;1.98;;;19.40;49.50;;;;;;5003344;28;20303;-65
2023/01/26 05:11:23;;;;;;;2.20;2.00;;;19.50;49.50;;;;;;5000485;28;20412;-66
2023/01/26 05:13:55;;;;;;;2.10;1.90;;;19.40;49.40;;;;;;5008699;28;20254;-66
2023/01/26 05:16:35;;;;;;;2.28;2.08;;;19.40;49.40;;;;;;5004833;28;20188;-66
2023/01/26 05:19:05;;;;;;;2.40;2.20;;;19.40;49.40;;;;;;5035121;23;20278;-71
2023/01/26 05:21:45;;;;;;;2.60;2.40;;;19.50;49.60;;;;;;5012585;28;20199;-73
2023/01/26 05:24:12;;;;;;;2.35;2.13;;;19.50;49.50;;;;;;5012951;28;20198;-71
2023/01/26 05:29:50;;;;;;;2.30;2.10;;;19.40;49.50;;;;;;4997147;28;20263;-73
2023/01/26 05:32:16;;;;;;;2.20;2.00;;;19.40;49.50;;;;;;4981154;28;20212;-71
2023/01/26 05:34:42;;;;;;;2.40;2.20;;;19.40;49.50;;;;;;4992075;28;20193;-70
2023/01/26 05:37:09;;;;;;;2.20;2.05;;;19.50;49.50;;;;;;4974861;28;20189;-70
2023/01/26 05:39:37;;;;;;;2.22;2.03;;;19.50;49.50;;;;;;5001389;28;20224;-72
2023/01/26 05:42:05;;;;;;;2.08;1.83;;;19.50;49.60;;;;;;5005085;28;20252;-73
2023/01/26 05:44:49;;;;;;;2.13;1.92;;;19.40;49.50;;;;;;4992679;28;20216;-73
2023/01/26 05:47:16;;;;;;;2.58;2.38;;;19.50;49.50;;;;;;4966602;28;20197;-74
2023/01/26 05:49:45;;;;;;;1.95;1.85;;;19.50;49.60;;;;;;4972356;28;20205;-72
2023/01/26 05:52:20;;;;;;;2.22;2.03;;;19.40;49.50;;;;;;4980136;28;20192;-71
2023/01/26 05:54:46;;;;;;;2.42;2.22;;;19.40;49.50;;;;;;4980493;28;20189;-72
2023/01/26 05:57:12;;;;;;;2.00;1.80;;;19.50;49.60;;;;;;4973120;28;20188;-72
2023/01/26 05:59:43;;;;;;;2.25;2.05;;;19.50;49.60;;;;;;4970459;28;20209;-71
2023/01/26 06:02:12;;;;;;;2.45;1.90;;;19.40;49.50;;;;;;4972162;28;20293;-71
2023/01/26 06:04:40;;;;;;;2.05;1.88;;;19.50;49.60;;;;;;4973670;28;20248;-71
2023/01/26 06:07:06;;;;;;;2.35;2.00;;;19.50;49.60;;;;;;4987898;28;20196;-70
2023/01/26 06:09:36;;;;;;;2.30;2.10;;;19.50;49.60;;;;;;4969014;28;20212;-71
2023/01/26 06:12:18;;;;;;;2.30;2.10;;;19.50;50.20;;;;;;4984240;28;20260;-72
2023/01/26 06:14:57;;;;;;;1.92;1.83;;;19.40;49.50;;;;;;4993627;28;20212;-72
2023/01/26 06:17:27;;;;;;;2.20;2.00;;;19.40;49.50;;;;;;4966906;28;20203;-72
2023/01/26 06:19:58;;;;;;;2.33;2.00;;;19.50;49.50;;;;;;4975338;28;20217;-72
2023/01/26 06:22:24;;;;;;;2.60;2.00;;;19.40;49.50;;;;;;4965910;28;20302;-72
2023/01/26 06:24:51;;;;;;;2.50;2.30;;;19.40;49.40;;;;;;4985583;28;20216;-72
2023/01/26 06:27:17;;;;;;;2.42;2.10;;;19.40;49.40;;;;;;4988725;28;20196;-73
2023/01/26 06:29:45;;;;;;;2.42;2.22;;;19.50;49.60;;;;;;4982153;28;20220;-73
2023/01/26 06:32:13;;;;;;;2.28;2.05;;;19.50;49.60;;;;;;4973425;28;20200;-73
2023/01/26 06:34:40;;;;;;;2.83;2.45;;;19.40;49.40;;;;;;4992367;28;20243;-71
2023/01/26 06:37:06;;;;;;;2.28;2.08;;;19.50;49.50;;;;;;5007793;28;20354;-71
2023/01/26 06:39:35;;;;;;;2.17;1.98;;;19.50;49.60;;;;;;4972319;28;20637;-73
2023/01/26 06:42:01;;;;;;;2.28;2.10;;;19.40;49.40;;;;;;4974724;28;20224;-73
2023/01/26 06:44:27;;;;;;;2.00;1.83;;;19.50;49.50;;;;;;4979459;28;20193;-73
2023/01/26 06:46:53;;;;;;;2.00;1.90;;;19.40;49.50;;;;;;4972228;28;20181;-73
2023/01/26 06:49:19;;;;;;;2.50;2.30;;;19.40;49.40;;;;;;4959291;28;20214;-72
2023/01/26 06:52:24;;;;;;;2.30;2.10;;;19.50;49.50;;;;;;4983650;28;20189;-73
2023/01/26 06:54:52;;;;;;;2.30;2.10;;;19.40;49.40;;;;;;4974237;28;20184;-73
2023/01/26 06:57:36;;;;;;;2.67;2.47;;;19.40;49.40;;;;;;4995604;28;20211;-73
2023/01/26 07:00:22;;;;;;;2.20;2.00;;;19.40;49.50;;;;;;4976876;28;20209;-72
2023/01/26 07:03:09;;;;;;;2.45;2.25;;;19.50;49.50;;;;;;4977224;28;20228;-72
2023/01/26 07:05:35;;;;;;;2.72;2.20;;;19.50;49.50;;;;;;4959915;28;20717;-71
2023/01/26 07:08:03;;;;;;;2.28;2.05;;;19.40;49.40;;;;;;4975578;28;20193;-70
2023/01/26 07:10:29;;;;;;;2.88;1.90;;;19.40;49.40;;;;;;4975332;28;20189;-71
2023/01/26 07:12:55;;;;;;;2.50;2.30;;;19.40;49.40;;;;;;4986891;28;20190;-71
2023/01/26 07:15:21;;;;;;;2.53;1.88;;;19.50;49.50;;;;;;5009737;28;20193;-71
2023/01/26 07:17:46;;;;;;;4.28;2.13;;;19.50;49.50;;;;;;4994697;28;20243;-70
2023/01/26 07:20:12;;;;;;;2.05;1.85;;;19.50;49.50;;;;;;4994050;28;20258;-70
2023/01/26 07:22:38;;;;;;;1.95;1.85;;;19.50;49.50;;;;;;4995265;28;20185;-71
2023/01/26 07:25:04;;;;;;;2.35;2.15;;;19.50;49.50;;;;;;4979515;28;20181;-70
2023/01/26 07:27:30;;;;;;;2.17;1.92;;;19.40;49.40;;;;;;4995760;28;20185;-73
2023/01/26 07:29:55;;;;;;;2.38;2.17;;;19.50;49.50;;;;;;4995664;28;20264;-73
2023/01/26 07:32:21;;;;;;;2.08;1.88;;;19.50;49.50;;;;;;4995244;28;20735;-73
2023/01/26 07:34:47;;;;;;;2.35;2.15;;;19.40;49.40;;;;;;4995344;28;20185;-73
2023/01/26 07:37:14;;;;;;;2.42;2.17;;;19.50;49.50;;;;;;4978484;28;20192;-73
2023/01/26 07:39:39;;;;;;;2.40;2.20;;;19.40;49.30;;;;;;4979835;28;20236;-73
2023/01/26 07:42:05;;;;;;;2.30;2.10;;;19.50;49.50;;;;;;4995421;28;20259;-73
2023/01/26 07:44:43;;;;;;;2.40;2.20;;;19.50;49.50;;;;;;4995395;28;20180;-73
2023/01/26 07:47:09;;;;;;;2.13;1.98;;;19.50;49.40;;;;;;4978474;28;20216;-73
2023/01/26 07:49:35;;;;;;;4.10;2.30;;;19.50;49.40;;;;;;4986413;28;20213;-73
2023/01/26 07:52:01;;;;;;;2.53;2.33;;;19.40;49.40;;;;;;4975088;28;20199;-73
2023/01/26 07:54:27;;;;;;;2.35;2.15;;;19.50;49.50;;;;;;4977891;28;20200;-72
2023/01/26 07:56:53;;;;;;;2.80;2.50;;;19.50;49.50;;;;;;4977942;28;20189;-73
2023/01/26 07:59:20;;;;;;;2.40;2.20;;;19.50;49.50;;;;;;4984150;28;20214;-73
2023/01/26 08:01:49;;;;;;;2.13;1.92;;;19.50;49.50;;;;;;4960102;28;20186;-71
2023/01/26 08:04:15;;;;;;;2.60;2.38;;;19.50;49.50;;;;;;4976210;28;20216;-71
2023/01/26 08:06:41;;;;;;;2.67;2.47;;;19.40;49.30;;;;;;4977650;28;20185;-71
2023/01/26 08:09:07;;;;;;;2.20;1.88;;;19.50;49.40;;;;;;4959887;28;20213;-71
2023/01/26 08:11:33;;;;;;;2.60;2.08;;;19.50;49.50;;;;;;4959598;28;20563;-70
2023/01/26 08:13:59;;;;;;;2.40;2.20;;;19.50;49.50;;;;;;4959872;28;20208;-71
2023/01/26 08:16:25;;;;;;;2.38;2.17;;;19.50;49.40;;;;;;4964831;28;20662;-71
2023/01/26 08:18:50;;;;;;;2.30;2.10;;;19.50;49.40;;;;;;4975492;28;20668;-71
2023/01/26 08:21:19;;;;;;;2.92;2.30;;;19.50;49.40;;;;;;4988973;28;20192;-70
2023/01/26 08:23:49;;;;;;;3.17;2.35;;;19.50;49.40;;;;;;4976578;28;20568;-70
2023/01/26 08:26:17;;;;;;;2.60;2.20;;;19.50;49.40;;;;;;4959179;28;20185;-71
2023/01/26 08:28:43;;;;;;;2.58;2.30;;;19.50;49.40;;;;;;4979219;28;20593;-71
2023/01/26 08:31:18;;;;;;;2.75;2.53;;;19.50;49.40;;;;;;5011118;28;20268;-71
2023/01/26 08:33:46;;;;;;;2.75;2.40;;;19.50;49.40;;;;;;5011268;28;20184;-71
2023/01/26 08:36:14;;;;;;;2.58;2.38;;;19.50;49.40;;;;;;4978136;28;20193;-71
2023/01/26 08:38:41;;;;;;;2.53;2.33;;;19.50;49.40;;;;;;4994714;28;20275;-71
2023/01/26 08:41:07;;;;;;;2.47;2.28;;;19.50;49.40;;;;;;4989768;28;20181;-71
2023/01/26 08:43:34;;;;;;;2.10;1.90;;;19.50;49.40;;;;;;4982196;28;20193;-71
2023/01/26 08:46:01;;;;;;;2.30;2.10;;;19.50;49.40;;;;;;4976567;28;20235;-71
2023/01/26 08:48:27;;;;;;;2.30;2.05;;;19.50;49.40;;;;;;4974976;28;20213;-71
2023/01/26 08:50:59;;;;;;;2.38;2.17;;;19.50;49.50;;;;;;4985053;28;20200;-70
2023/01/26 08:53:28;;;;;;;2.10;1.90;;;19.50;49.40;;;;;;4984608;28;20326;-71
2023/01/26 08:55:54;;;;;;;2.53;2.33;;;19.50;49.40;;;;;;4994287;28;20546;-71
2023/01/26 08:58:20;;;;;;;2.13;1.92;;;19.50;49.40;;;;;;4993518;28;20220;-71
2023/01/26 09:00:46;;;;;;;1.90;1.80;;;19.50;49.40;;;;;;4992542;28;20244;-70
2023/01/26 09:03:11;;;;;;;2.20;2.00;;;19.60;49.50;;;;;;4994271;28;20184;-70
2023/01/26 09:05:39;;;;;;;2.15;2.00;;;19.50;49.40;;;;;;4995437;28;20268;-71
2023/01/26 09:08:07;;;;;;;2.22;2.03;;;19.60;49.50;;;;;;4980778;28;20193;-70
2023/01/26 09:10:33;;;;;;;2.30;2.10;;;19.50;49.40;;;;;;4989569;28;20201;-71
2023/01/26 09:13:00;;;;;;;2.20;2.00;;;19.60;49.40;;;;;;4975034;28;20193;-71
2023/01/26 09:15:26;;;;;;;1.98;1.88;;;19.50;49.40;;;;;;4960457;28;20190;-71
2023/01/26 09:17:52;;;;;;;1.90;1.80;;;19.50;49.30;;;;;;4977922;28;20209;-71
2023/01/26 09:20:19;;;;;;;2.63;2.00;;;19.60;49.40;;;;;;4977704;28;20302;-70
2023/01/26 09:22:45;;;;;;;2.08;1.90;;;19.50;49.30;;;;;;4993933;28;20193;-71
2023/01/26 09:25:11;;;;;;;1.90;1.70;;;19.60;49.40;;;;;;4977901;28;20180;-71
2023/01/26 09:27:37;;;;;;;2.15;1.95;;;19.50;49.30;;;;;;4977708;28;20181;-71
2023/01/26 09:30:06;;;;;;;1.90;1.80;;;19.50;49.40;;;;;;5007453;28;20364;-71
2023/01/26 09:32:32;;;;;;;2.08;1.88;;;19.60;49.40;;;;;;4989683;28;20276;-71
2023/01/26 09:34:58;;;;;;;2.00;1.90;;;19.60;49.40;;;;;;4974842;28;20186;-71
2023/01/26 09:37:24;;;;;;;1.80;1.70;;;19.60;49.40;;;;;;4974524;28;20231;-71
2023/01/26 09:39:49;;;;;;;1.75;1.65;;;19.60;49.40;;;;;;4958000;28;20245;-71
2023/01/26 09:42:43;;;;;;;2.13;1.98;;;19.60;49.40;;;;;;4978325;28;20192;-70
2023/01/26 09:45:12;;;;;;;1.88;1.77;;;19.60;49.40;;;;;;4960812;28;20197;-71
2023/01/26 09:48:16;;;;;;;2.50;2.30;;;19.60;49.40;;;;;;4992466;28;20190;-71
2023/01/26 09:51:22;;;;;;;2.58;2.25;;;19.60;49.40;;;;;;4992946;28;20188;-71
2023/01/26 09:54:17;;;;;;;2.10;1.90;;;19.60;49.40;;;;;;4980549;28;20223;-71
2023/01/26 09:56:44;;;;;;;1.80;1.63;;;19.60;49.40;;;;;;4973382;28;20189;-71
2023/01/26 10:00:02;;;;;;;2.03;1.88;;;19.60;49.40;;;;;;4974538;28;20632;-71
2023/01/26 10:02:54;;;;;;;1.83;1.73;;;19.60;49.40;;;;;;4977876;28;20258;-71
2023/01/26 10:05:29;;;;;;;1.95;1.75;;;19.60;49.40;;;;;;4993518;28;20204;-71
2023/01/26 10:08:02;;;;;;;1.88;1.70;;;19.60;49.40;;;;;;4992660;28;20177;-71
2023/01/26 10:10:40;;;;;;;2.08;1.83;;;19.60;49.40;;;;;;4992278;28;20196;-71
2023/01/26 10:13:11;;;;;;;2.00;1.80;;;19.60;49.40;;;;;;4992203;28;20231;-71
2023/01/26 10:15:42;;;;;;;1.77;1.67;;;19.60;49.40;;;;;;4992111;28;20200;-71
2023/01/26 10:18:52;;;;;;;1.80;1.70;;;19.60;49.50;;;;;;4973932;28;20261;-71
2023/01/26 10:21:24;;;;;;;1.90;1.80;;;19.60;49.50;;;;;;4954541;28;20271;-70
2023/01/26 10:23:51;;;;;;;1.80;1.65;;;19.60;49.50;;;;;;4991935;28;20197;-71
2023/01/26 10:26:20;;;;;;;1.88;1.73;;;19.60;49.50;;;;;;4976389;28;20221;-71
2023/01/26 10:28:49;;;;;;;2.00;1.90;;;19.60;49.50;;;;;;4971701;28;20204;-71
2023/01/26 10:31:26;;;;;;;2.15;1.70;;;19.60;49.60;;;;;;4996949;28;20185;-71
2023/01/26 10:34:13;;;;;;;1.42;1.33;;;19.60;49.50;;;;;;4996107;28;20265;-71
2023/01/26 10:36:42;;;;;;;1.65;1.55;;;19.60;49.60;;;;;;4994829;28;20193;-71
2023/01/26 10:39:14;;;;;;;1.50;1.40;;;19.60;49.50;;;;;;4977062;28;20218;-71
2023/01/26 10:41:39;;;;;;;1.90;1.80;;;19.60;49.60;;;;;;4975315;28;20579;-71
2023/01/26 10:44:08;;;;;;;1.30;1.20;;;19.60;49.60;;;;;;4959843;28;20189;-71
2023/01/26 10:46:41;;;;;;;1.63;1.48;;;19.60;49.60;;;;;;4976134;28;20189;-71
2023/01/26 10:49:13;;;;;;;1.70;1.60;;;19.70;49.70;;;;;;4970663;28;20778;-71
2023/01/26 10:52:03;;;;;;;2.13;1.83;;;19.60;49.70;;;;;;4983925;28;20209;-71
2023/01/26 10:54:29;;;;;;;1.50;1.40;;;19.70;49.80;;;;;;4985489;28;20196;-71
2023/01/26 10:56:56;;;;;;;3.30;1.70;;;19.60;49.80;;;;;;4995080;28;20258;-71
2023/01/26 10:59:38;;;;;;;1.45;1.35;;;19.60;49.70;;;;;;4978954;28;20705;-71
2023/01/26 11:02:16;;;;;;;1.60;1.50;;;19.70;49.80;;;;;;4989925;28;20193;-71
2023/01/26 11:05:06;;;;;;;1.52;1.42;;;19.60;49.60;;;;;;4988310;28;20331;-71
2023/01/26 11:07:38;;;;;;;1.60;1.50;;;19.70;49.80;;;;;;4978966;28;20196;-71
2023/01/26 11:10:35;;;;;;;1.88;1.65;;;19.60;49.60;;;;;;4994779;28;20263;-74
2023/01/26 11:13:20;;;;;;;2.40;1.50;;;19.60;49.60;;;;;;4974495;28;20196;-74
2023/01/26 11:15:51;;;;;;;1.88;1.77;;;19.60;49.60;;;;;;4959090;28;20581;-74
2023/01/26 11:18:35;;;;;;;1.52;1.42;;;19.70;49.70;;;;;;4975338;28;20217;-73
2023/01/26 11:21:18;;;;;;;1.45;1.35;;;19.70;49.70;;;;;;4998172;23;20237;-64
2023/01/26 11:24:11;;;;;;;1.73;1.60;;;19.70;49.70;;;;;;4959080;28;20196;-64
2023/01/26 11:26:55;;;;;;;1.75;1.65;;;19.60;49.60;;;;;;4974854;28;20313;-65
2023/01/26 11:29:52;;;;;;;1.58;1.48;;;19.70;49.70;;;;;;4958425;28;20228;-65
2023/01/26 11:32:49;;;;;;;1.67;1.58;;;19.70;49.80;;;;;;4975597;28;20240;-66
2023/01/26 11:35:46;;;;;;;1.60;1.50;;;19.70;49.80;;;;;;4974643;28;20280;-64
2023/01/26 11:38:38;;;;;;;2.10;1.90;;;19.70;49.80;;;;;;4975349;28;20686;-65
2023/01/26 11:41:45;;;;;;;1.60;1.50;;;19.70;49.80;;;;;;4974179;28;20224;-65
2023/01/26 11:44:38;;;;;;;1.50;1.40;;;19.70;49.80;;;;;;4973501;28;20204;-65
2023/01/26 11:47:48;;;;;;;1.40;1.30;;;19.70;49.90;;;;;;4971266;28;20259;-65
2023/01/26 11:50:44;;;;;;;2.17;1.63;;;19.70;49.90;;;;;;4969247;28;20240;-65
2023/01/26 11:53:38;;;;;;;2.45;1.67;;;19.70;49.90;;;;;;4975444;28;20190;-65
2023/01/26 11:56:28;;;;;;;1.77;1.67;;;19.70;49.90;;;;;;4974366;28;20202;-65
2023/01/26 11:59:11;;;;;;;1.70;1.50;;;19.70;49.80;;;;;;4974012;28;20209;-64
2023/01/26 12:02:20;;;;;;;1.80;1.70;;;19.70;49.90;;;;;;4974320;28;20177;-65
2023/01/26 12:04:46;;;;;;;1.50;1.40;;;19.70;49.80;;;;;;4947294;28;20197;-65
2023/01/26 12:07:29;;;;;;;1.80;1.70;;;19.70;49.90;;;;;;4974081;28;20182;-65
2023/01/26 12:09:57;;;;;;;1.48;1.38;;;19.70;49.90;;;;;;4973736;28;20244;-65
2023/01/26 12:12:39;;;;;;;1.83;1.65;;;19.70;49.90;;;;;;4973529;28;20201;-64
2023/01/26 12:15:17;;;;;;;1.63;1.50;;;19.70;49.90;;;;;;4954549;29;20204;-64
2023/01/26 12:18:14;;;;;;;2.13;1.90;;;19.70;50.00;;;;;;4980553;28;20197;-65
2023/01/26 12:20:52;;;;;;;2.30;1.77;;;19.70;50.00;;;;;;4971926;28;20221;-64
2023/01/26 12:23:42;;;;;;;1.58;1.48;;;19.80;50.10;;;;;;4973520;28;20189;-65
2023/01/26 12:26:15;;;;;;;1.60;1.50;;;19.70;50.00;;;;;;4973398;28;20288;-65
2023/01/26 12:29:20;;;;;;;1.77;1.67;;;19.70;50.00;;;;;;4956175;28;20194;-65
2023/01/26 12:32:12;;;;;;;1.77;1.40;;;19.70;50.00;;;;;;4973168;28;20212;-65
2023/01/26 12:34:38;;;;;;;1.80;1.50;;;19.70;50.10;;;;;;4955812;28;20198;-65
2023/01/26 12:37:22;;;;;;;3.17;1.77;;;19.70;50.00;;;;;;4973018;28;20200;-65
2023/01/26 12:40:24;;;;;;;1.70;1.60;;;19.70;50.10;;;;;;4973207;28;20225;-65
2023/01/26 12:43:16;;;;;;;1.80;1.70;;;19.70;50.10;;;;;;4973384;28;20227;-65
2023/01/26 12:45:48;;;;;;;2.53;1.70;;;19.70;50.00;;;;;;4960139;28;20209;-64
2023/01/26 12:48:30;;;;;;;1.83;1.50;;;19.70;50.00;;;;;;4957411;28;20185;-65
2023/01/26 12:51:09;;;;;;;4.68;1.75;;;19.70;50.00;;;;;;4949620;28;20229;-65
2023/01/26 12:54:09;;;;;;;3.08;1.75;;;19.70;50.00;;;;;;4941098;28;20212;-65
2023/01/26 12:56:46;;;;;;;2.55;1.77;;;19.70;50.00;;;;;;4973051;28;20225;-64
2023/01/26 12:59:36;;;;;;;2.80;1.90;;;19.80;50.10;;;;;;4972404;28;20214;-65
2023/01/26 13:02:19;;;;;;;2.10;1.90;;;19.70;50.00;;;;;;4959875;28;20265;-66
2023/01/26 13:04:46;;;;;;;2.03;1.83;;;19.70;50.00;;;;;;4986775;28;20197;-65
2023/01/26 13:07:38;;;;;;;2.78;1.85;;;19.70;50.10;;;;;;4972314;28;20185;-65
2023/01/26 13:10:18;;;;;;;2.10;1.90;;;19.70;50.10;;;;;;4965652;28;20717;-65
2023/01/26 13:13:12;;;;;;;2.45;2.10;;;19.70;50.10;;;;;;4973241;28;20189;-65
2023/01/26 13:15:39;;;;;;;5.20;1.98;;;19.70;50.00;;;;;;4972028;28;20244;-65
2023/01/26 13:18:05;;;;;;;3.40;2.00;;;19.70;50.10;;;;;;4956729;28;20213;-65
2023/01/26 13:20:42;;;;;;;3.25;1.90;;;19.70;50.10;;;;;;4973369;28;20248;-64
2023/01/26 13:23:26;;;;;;;2.78;2.08;;;19.70;50.20;;;;;;4956522;28;20197;-65
2023/01/26 13:26:39;;;;;;;3.30;2.13;;;19.70;50.30;;;;;;4972429;28;20261;-65
2023/01/26 13:29:23;;;;;;;3.80;1.80;;;19.70;50.40;;;;;;4952250;28;20233;-64
2023/01/26 13:31:50;;;;;;;4.00;2.00;;;19.70;50.20;;;;;;4970941;28;20193;-64
2023/01/26 13:34:27;;;;;;;4.40;2.10;;;19.70;50.20;;;;;;4971953;28;20191;-65
2023/01/26 13:37:03;;;;;;;3.75;1.85;;;19.70;50.20;;;;;;4971679;28;20193;-65
2023/01/26 13:39:35;;;;;;;3.20;2.13;;;19.70;50.20;;;;;;4970438;28;20606;-65
2023/01/26 13:42:13;;;;;;;2.45;1.85;;;19.70;50.20;;;;;;4954659;28;20276;-65
2023/01/26 13:44:56;;;;;;;3.67;1.70;;;19.70;50.10;;;;;;4953257;28;20190;-64
2023/01/26 13:47:36;;;;;;;2.20;2.00;;;19.70;50.00;;;;;;4971784;28;20185;-64
2023/01/26 13:50:32;;;;;;;2.00;1.67;;;19.70;49.90;;;;;;4962860;28;20292;-64
2023/01/26 13:52:59;;;;;;;2.85;1.80;;;19.70;50.40;;;;;;4954682;28;20195;-63
2023/01/26 13:55:29;;;;;;;2.63;1.85;;;19.70;49.80;;;;;;4971688;28;20611;-64
2023/01/26 13:58:16;;;;;;;2.90;2.10;;;19.70;49.80;;;;;;4954458;28;20197;-64
2023/01/26 14:00:56;;;;;;;2.97;2.10;;;19.80;50.00;;;;;;4947706;28;20211;-65
2023/01/26 14:03:22;;;;;;;2.42;1.83;;;19.70;49.80;;;;;;4963626;28;20268;-65
2023/01/26 14:06:07;;;;;;;2.40;2.20;;;19.70;49.80;;;;;;4972555;28;20185;-64
2023/01/26 14:08:35;;;;;;;2.47;2.08;;;19.70;49.80;;;;;;4969282;28;20240;-64